createdAt,value
2019-04-24T03:13:19.462Z,0.00
2019-04-24T03:14:16.942Z,0.00
2019-04-24T03:15:22.040Z,0.00
2019-04-24T03:18:12.820Z,0.00
2019-04-24T03:19:37.860Z,0.00
2019-04-24T03:20:19.157Z,0.00
2019-04-24T03:21:14.265Z,0.00
2019-04-24T03:23:26.879Z,0.00
2019-04-24T03:25:47.643Z,0.00
2019-04-24T03:26:52.838Z,0.00
2019-04-24T03:27:33.477Z,0.00
2019-04-24T03:28:32.093Z,0.00
2019-04-24T03:29:27.005Z,0.00
2019-04-24T03:30:34.334Z,0.00
2019-04-24T03:33:42.775Z,0.00
2019-04-24T03:36:01.235Z,0.00
2019-04-24T03:37:49.717Z,0.00
2019-04-24T03:40:49.321Z,0.00
2019-04-24T03:43:12.751Z,0.00
2019-04-24T03:46:23.579Z,0.00
2019-04-24T03:47:32.506Z,0.00
2019-04-24T03:49:43.268Z,0.00
2019-04-24T03:50:46.515Z,0.00
2019-04-24T03:55:35.476Z,0.00
2019-04-24T03:56:25.509Z,0.00
2019-04-24T03:57:36.502Z,0.00
2019-04-24T03:58:35.208Z,0.00
2019-04-24T03:59:26.568Z,0.00
2019-04-24T04:01:22.088Z,0.00
2019-04-24T04:03:35.554Z,5.63
2019-04-24T04:05:25.203Z,5.63
2019-04-24T04:06:18.165Z,5.63
2019-04-24T04:08:42.427Z,5.63
2019-04-24T04:10:27.858Z,5.63
2019-04-24T04:11:38.719Z,11.25
2019-04-24T04:12:36.579Z,11.25
2019-04-24T04:14:32.617Z,11.25
2019-04-24T04:15:19.893Z,11.25
2019-04-24T04:17:42.101Z,16.88
2019-04-24T04:20:36.431Z,22.50
2019-04-24T04:21:25.568Z,22.50
2019-04-24T04:24:34.790Z,28.13
2019-04-24T04:25:38.863Z,28.13
2019-04-24T04:26:33.785Z,28.13
2019-04-24T04:27:34.478Z,33.75
2019-04-24T04:28:21.240Z,33.75
2019-04-24T04:31:29.205Z,39.38
2019-04-24T04:34:47.519Z,45.00
2019-04-24T04:35:13.783Z,50.63
2019-04-24T04:36:46.310Z,50.63
2019-04-24T04:37:15.908Z,56.25
2019-04-24T04:38:34.274Z,56.25
2019-04-24T04:39:32.702Z,61.88
2019-04-24T04:40:45.470Z,61.88
2019-04-24T04:42:43.068Z,67.50
2019-04-24T04:43:40.057Z,73.13
2019-04-24T04:44:44.701Z,73.13
2019-04-24T04:45:56.637Z,78.75
2019-04-24T04:48:53.947Z,84.38
2019-04-24T04:49:47.990Z,90.00
2019-04-24T04:52:46.457Z,101.25
2019-04-24T04:55:32.931Z,106.88
2019-04-24T04:58:55.218Z,123.75
2019-04-24T05:00:38.096Z,135.00
2019-04-24T05:02:55.885Z,151.88
2019-04-24T05:03:37.118Z,168.75
2019-04-24T05:09:18.475Z,202.50
2019-04-24T05:10:29.549Z,213.75
2019-04-24T05:11:48.779Z,213.75
2019-04-24T05:12:42.205Z,213.75
2019-04-24T05:13:45.027Z,213.75
2019-04-24T05:17:48.361Z,241.88
2019-04-24T05:18:38.650Z,253.13
2019-04-24T05:20:40.489Z,264.38
2019-04-24T05:21:42.412Z,270.00
2019-04-24T05:25:36.384Z,275.63
2019-04-24T05:30:32.751Z,236.25
2019-04-24T05:31:34.584Z,236.25
2019-04-24T05:33:03.498Z,241.88
2019-04-24T05:34:39.568Z,247.50
2019-04-24T05:36:40.555Z,253.13
2019-04-24T05:37:43.317Z,258.75
2019-04-24T05:38:32.113Z,264.38
2019-04-24T05:40:37.654Z,258.75
2019-04-24T05:44:23.440Z,281.25
2019-04-24T05:45:56.304Z,286.88
2019-04-24T05:46:33.115Z,298.13
2019-04-24T05:47:41.330Z,303.75
2019-04-24T05:48:43.942Z,303.75
2019-04-24T05:49:32.593Z,303.75
2019-04-24T05:50:36.405Z,303.75
2019-04-24T05:51:36.352Z,303.75
2019-04-24T05:52:39.634Z,303.75
2019-04-24T05:53:38.220Z,303.75
2019-04-24T05:54:31.774Z,303.75
2019-04-24T05:55:46.020Z,303.75
2019-04-24T05:56:54.308Z,303.75
2019-04-24T05:59:50.028Z,303.75
2019-04-24T06:01:06.577Z,303.75
2019-04-24T06:02:13.706Z,303.75
2019-04-24T06:03:58.577Z,303.75
2019-04-24T06:04:51.401Z,303.75
2019-04-24T06:05:52.294Z,309.38
2019-04-24T06:06:51.965Z,309.38
2019-04-24T06:07:46.875Z,309.38
2019-04-24T06:09:34.971Z,309.38
2019-04-24T06:11:48.662Z,315.00
2019-04-24T06:19:53.955Z,326.25
2019-04-24T06:21:40.234Z,326.25
2019-04-24T06:24:05.444Z,331.88
2019-04-24T06:25:56.515Z,331.88
2019-04-24T06:26:42.067Z,337.50
2019-04-24T06:27:38.126Z,337.50
2019-04-24T06:33:51.617Z,348.75
2019-04-24T06:34:57.055Z,326.25
2019-04-24T06:36:58.783Z,348.75
2019-04-24T06:38:46.867Z,360.00
2019-04-24T06:41:42.971Z,371.25
2019-04-24T06:43:39.349Z,376.88
2019-04-24T06:45:40.663Z,382.50
2019-04-24T06:46:48.707Z,382.50
2019-04-24T06:48:37.906Z,393.75
2019-04-24T06:49:27.603Z,399.38
2019-04-24T06:51:35.562Z,410.63
2019-04-24T06:52:46.529Z,416.25
2019-04-24T06:53:46.033Z,421.88
2019-04-24T06:54:47.460Z,427.50
2019-04-24T06:55:45.346Z,433.13
2019-04-24T06:57:10.154Z,438.75
2019-04-24T06:57:54.565Z,444.38
2019-04-24T06:58:42.471Z,450.00
2019-04-24T06:59:50.253Z,450.00
2019-04-24T07:00:58.110Z,438.75
2019-04-24T07:02:49.381Z,433.13
2019-04-24T07:04:07.585Z,433.13
2019-04-24T07:05:38.788Z,399.38
2019-04-24T07:06:54.102Z,371.25
2019-04-24T07:08:47.871Z,388.13
2019-04-24T07:09:44.024Z,382.50
2019-04-24T07:10:59.413Z,365.63
2019-04-24T07:11:58.530Z,360.00
2019-04-24T07:12:53.196Z,371.25
2019-04-24T07:14:50.144Z,382.50
2019-04-24T07:18:00.988Z,388.13
2019-04-24T07:18:48.496Z,399.38
2019-04-24T07:21:01.468Z,399.38
2019-04-24T07:21:50.414Z,393.75
2019-04-24T07:22:46.602Z,393.75
2019-04-24T07:23:57.911Z,421.88
2019-04-24T07:26:43.818Z,433.13
2019-04-24T07:28:57.481Z,444.38
2019-04-24T07:30:56.151Z,433.13
2019-04-24T07:33:48.411Z,438.75
2019-04-24T07:35:09.205Z,461.25
2019-04-24T07:35:54.891Z,455.63
2019-04-24T07:38:40.684Z,438.75
2019-04-24T07:39:49.909Z,444.38
2019-04-24T07:41:01.667Z,421.88
2019-04-24T07:42:03.055Z,427.50
2019-04-24T07:42:54.247Z,438.75
2019-04-24T07:43:56.829Z,393.75
2019-04-24T07:44:42.305Z,421.88
2019-04-24T07:46:47.665Z,438.75
2019-04-24T07:48:02.645Z,433.13
2019-04-24T07:48:56.579Z,421.88
2019-04-24T07:49:46.074Z,410.63
2019-04-24T07:51:00.459Z,416.25
2019-04-24T07:52:00.656Z,410.63
2019-04-24T07:52:59.931Z,410.63
2019-04-24T07:55:56.920Z,416.25
2019-04-24T07:57:01.167Z,421.88
2019-04-24T07:57:46.022Z,410.63
2019-04-24T08:00:50.047Z,405.00
2019-04-24T08:02:02.201Z,427.50
2019-04-24T08:03:09.433Z,427.50
2019-04-24T08:04:02.067Z,427.50
2019-04-24T08:05:49.679Z,427.50
2019-04-24T08:06:58.797Z,427.50
2019-04-24T08:09:02.440Z,427.50
2019-04-24T08:10:11.616Z,421.88
2019-04-24T08:11:59.421Z,427.50
2019-04-24T08:12:48.261Z,421.88
2019-04-24T08:13:56.633Z,421.88
2019-04-24T08:15:10.898Z,421.88
2019-04-24T08:16:47.118Z,421.88
2019-04-24T08:18:48.103Z,421.88
2019-04-24T08:21:59.288Z,421.88
2019-04-24T08:23:01.185Z,421.88
2019-04-24T08:23:53.195Z,421.88
2019-04-24T08:25:59.305Z,421.88
2019-04-24T08:26:59.235Z,421.88
2019-04-24T08:27:59.538Z,421.88
2019-04-24T08:29:00.369Z,421.88
2019-04-24T08:30:00.557Z,421.88
2019-04-24T08:31:01.712Z,427.50
2019-04-24T08:33:01.963Z,427.50
2019-04-24T08:35:04.566Z,427.50
2019-04-24T08:36:01.347Z,427.50
2019-04-24T08:36:57.758Z,427.50
2019-04-24T08:40:04.253Z,427.50
2019-04-24T08:43:06.790Z,427.50
2019-04-24T08:43:59.453Z,427.50
2019-04-24T08:45:06.387Z,427.50
2019-04-24T08:45:59.169Z,427.50
2019-04-24T08:47:03.674Z,427.50
2019-04-24T08:50:14.899Z,433.13
2019-04-24T08:52:19.392Z,433.13
2019-04-24T08:54:00.843Z,433.13
2019-04-24T08:55:06.480Z,433.13
2019-04-24T08:56:03.994Z,433.13
2019-04-24T08:57:03.159Z,433.13
2019-04-24T08:59:07.808Z,438.75
2019-04-24T09:01:06.343Z,438.75
2019-04-24T09:02:03.515Z,438.75
2019-04-24T09:04:47.069Z,438.75
2019-04-24T09:05:01.006Z,438.75
2019-04-24T09:06:52.229Z,438.75
2019-04-24T09:08:14.256Z,438.75
2019-04-24T09:11:59.633Z,444.38
2019-04-24T09:13:06.835Z,444.38
2019-04-24T09:14:25.579Z,444.38
2019-04-24T09:15:01.372Z,450.00
2019-04-24T09:18:12.116Z,455.63
2019-04-24T09:22:06.742Z,472.50
2019-04-24T09:23:18.794Z,478.13
2019-04-24T09:24:31.763Z,483.75
2019-04-24T09:25:10.753Z,489.38
2019-04-24T09:26:37.599Z,500.63
2019-04-24T09:28:26.611Z,517.50
2019-04-24T09:29:18.655Z,523.13
2019-04-24T09:30:17.644Z,534.38
2019-04-24T09:31:04.758Z,540.00
2019-04-24T09:33:10.008Z,556.88
2019-04-24T09:34:19.035Z,568.13
2019-04-24T09:35:04.728Z,573.75
2019-04-24T09:37:07.123Z,585.00
2019-04-24T09:39:08.941Z,534.38
2019-04-24T09:40:36.568Z,506.25
2019-04-24T09:41:20.056Z,517.50
2019-04-24T09:42:22.830Z,495.00
2019-04-24T09:43:20.739Z,461.25
2019-04-24T09:45:06.941Z,483.75
2019-04-24T09:46:09.879Z,523.13
2019-04-24T09:47:19.215Z,511.88
2019-04-24T09:50:15.215Z,489.38
2019-04-24T09:52:09.458Z,483.75
2019-04-24T09:54:08.718Z,478.13
2019-04-24T09:55:10.329Z,478.13
2019-04-24T09:56:31.306Z,483.75
2019-04-24T09:57:10.622Z,483.75
2019-04-24T09:59:15.984Z,495.00
2019-04-24T10:00:05.064Z,495.00
2019-04-24T10:01:25.355Z,500.63
2019-04-24T10:02:17.310Z,506.25
2019-04-24T10:03:11.261Z,506.25
2019-04-24T10:05:11.945Z,511.88
2019-04-24T10:06:33.776Z,506.25
2019-04-24T10:07:21.545Z,506.25
2019-04-24T10:08:12.295Z,500.63
2019-04-24T10:09:10.044Z,500.63
2019-04-24T10:10:10.290Z,500.63
2019-04-24T10:11:22.098Z,495.00
2019-04-24T10:13:08.099Z,495.00
2019-04-24T10:14:10.693Z,495.00
2019-04-24T10:15:06.220Z,495.00
2019-04-24T10:16:05.616Z,489.38
2019-04-24T10:18:08.823Z,489.38
2019-04-24T10:19:22.947Z,489.38
2019-04-24T10:21:09.742Z,489.38
2019-04-24T10:22:09.235Z,495.00
2019-04-24T10:23:25.040Z,489.38
2019-04-24T10:24:34.881Z,495.00
2019-04-24T10:25:18.717Z,495.00
2019-04-24T10:26:13.489Z,495.00
2019-04-24T10:27:10.507Z,455.63
2019-04-24T10:28:16.032Z,495.00
2019-04-24T10:30:04.324Z,489.38
2019-04-24T10:31:06.783Z,495.00
2019-04-24T10:33:14.035Z,495.00
2019-04-24T10:34:13.434Z,495.00
2019-04-24T10:35:19.970Z,495.00
2019-04-24T10:36:10.539Z,495.00
2019-04-24T10:38:27.375Z,495.00
2019-04-24T10:39:26.619Z,495.00
2019-04-24T10:41:21.868Z,495.00
2019-04-24T10:42:24.729Z,495.00
2019-04-24T10:43:10.536Z,495.00
2019-04-24T10:44:17.853Z,495.00
2019-04-24T10:45:16.665Z,495.00
2019-04-24T10:46:14.901Z,495.00
2019-04-24T10:48:21.007Z,495.00
2019-04-24T10:49:19.128Z,495.00
2019-04-24T10:50:05.387Z,495.00
2019-04-24T10:51:17.916Z,495.00
2019-04-24T10:52:13.275Z,500.63
2019-04-24T10:54:18.812Z,495.00
2019-04-24T10:55:20.012Z,495.00
2019-04-24T10:57:25.856Z,500.63
2019-04-24T10:58:16.925Z,500.63
2019-04-24T10:59:17.335Z,500.63
2019-04-24T11:00:19.623Z,500.63
2019-04-24T11:03:32.966Z,506.25
2019-04-24T11:04:17.819Z,500.63
2019-04-24T11:05:41.782Z,500.63
2019-04-24T11:06:28.901Z,500.63
2019-04-24T11:07:27.242Z,500.63
2019-04-24T11:09:24.979Z,506.25
2019-04-24T11:11:39.984Z,506.25
2019-04-24T11:16:41.994Z,506.25
2019-04-24T11:18:35.205Z,506.25
2019-04-24T11:19:30.451Z,511.88
2019-04-24T11:20:29.421Z,511.88
2019-04-24T11:22:18.468Z,511.88
2019-04-24T11:23:38.043Z,511.88
2019-04-24T11:25:31.002Z,511.88
2019-04-24T11:28:33.532Z,511.88
2019-04-24T11:29:23.248Z,511.88
2019-04-24T11:30:14.021Z,511.88
2019-04-24T11:31:27.499Z,511.88
2019-04-24T11:32:39.546Z,511.88
2019-04-24T11:33:33.315Z,511.88
2019-04-24T11:34:51.403Z,511.88
2019-04-24T11:35:22.128Z,511.88
2019-04-24T11:36:23.343Z,511.88
2019-04-24T11:37:15.599Z,511.88
2019-04-24T11:38:31.226Z,511.88
2019-04-24T11:39:44.139Z,517.50
2019-04-24T11:41:25.944Z,511.88
2019-04-24T11:42:18.718Z,517.50
2019-04-24T11:43:24.974Z,517.50
2019-04-24T11:44:23.166Z,511.88
2019-04-24T11:45:36.699Z,517.50
2019-04-24T11:46:59.043Z,517.50
2019-04-24T11:47:43.201Z,517.50
2019-04-24T11:48:30.304Z,523.13
2019-04-24T11:49:38.074Z,523.13
2019-04-24T11:53:24.614Z,523.13
2019-04-24T11:54:39.032Z,523.13
2019-04-24T11:55:35.635Z,523.13
2019-04-24T11:56:33.601Z,523.13
2019-04-24T11:57:54.121Z,523.13
2019-04-24T11:58:37.460Z,523.13
2019-04-24T11:59:04.981Z,523.13
2019-04-24T12:00:11.796Z,523.13
2019-04-24T12:01:26.020Z,523.13
2019-04-24T12:02:25.362Z,528.75
2019-04-24T12:03:22.487Z,528.75
2019-04-24T12:05:34.239Z,523.13
2019-04-24T12:07:51.946Z,517.50
2019-04-24T12:08:29.829Z,523.13
2019-04-24T12:09:25.023Z,528.75
2019-04-24T12:10:27.733Z,534.38
2019-04-24T12:11:37.709Z,534.38
2019-04-24T12:12:26.679Z,540.00
2019-04-24T12:14:29.049Z,534.38
2019-04-24T12:15:30.570Z,534.38
2019-04-24T12:16:39.397Z,534.38
2019-04-24T12:17:24.842Z,534.38
2019-04-24T12:20:32.083Z,540.00
2019-04-24T12:22:45.975Z,545.63
2019-04-24T12:23:44.999Z,540.00
2019-04-24T12:24:21.246Z,540.00
2019-04-24T12:25:46.447Z,540.00
2019-04-24T12:26:23.257Z,540.00
2019-04-24T12:27:36.636Z,545.63
2019-04-24T12:28:43.782Z,540.00
2019-04-24T12:29:31.986Z,506.25
2019-04-24T12:30:32.369Z,540.00
2019-04-24T12:31:38.278Z,528.75
2019-04-24T12:32:27.548Z,534.38
2019-04-24T12:33:31.516Z,540.00
2019-04-24T12:34:40.795Z,551.25
2019-04-24T12:35:26.723Z,551.25
2019-04-24T12:36:32.202Z,551.25
2019-04-24T12:37:28.885Z,562.50
2019-04-24T12:38:51.645Z,556.88
2019-04-24T12:39:27.256Z,551.25
2019-04-24T12:42:44.462Z,551.25
2019-04-24T12:43:37.041Z,534.38
2019-04-24T12:45:40.290Z,500.63
2019-04-24T12:46:41.878Z,528.75
2019-04-24T12:48:39.867Z,551.25
2019-04-24T12:49:45.485Z,562.50
2019-04-24T12:50:33.827Z,585.00
2019-04-24T12:51:37.597Z,585.00
2019-04-24T12:52:30.222Z,585.00
2019-04-24T12:53:41.340Z,590.63
2019-04-24T12:55:43.691Z,601.88
2019-04-24T12:56:53.534Z,607.50
2019-04-24T12:59:41.628Z,596.25
2019-04-24T13:00:43.435Z,607.50
2019-04-24T13:01:35.667Z,607.50
2019-04-24T13:02:37.114Z,607.50
2019-04-24T13:03:53.151Z,607.50
2019-04-24T13:04:38.666Z,607.50
2019-04-24T13:06:25.798Z,590.63
2019-04-24T13:07:51.389Z,590.63
2019-04-24T13:08:54.072Z,585.00
2019-04-24T13:09:41.969Z,579.38
2019-04-24T13:10:47.093Z,579.38
2019-04-24T13:11:40.531Z,455.63
2019-04-24T13:13:50.767Z,489.38
2019-04-24T13:14:51.828Z,506.25
2019-04-24T13:15:40.067Z,551.25
2019-04-24T13:16:46.401Z,579.38
2019-04-24T13:17:51.010Z,607.50
2019-04-24T13:18:53.593Z,618.75
2019-04-24T13:20:16.723Z,646.88
2019-04-24T13:21:20.517Z,641.25
2019-04-24T13:22:24.592Z,635.63
2019-04-24T13:23:30.552Z,641.25
2019-04-24T13:24:32.239Z,646.88
2019-04-24T13:25:43.244Z,646.88
2019-04-24T13:26:46.795Z,646.88
2019-04-24T13:28:00.762Z,641.25
2019-04-24T13:29:52.578Z,675.00
2019-04-24T13:30:41.538Z,697.50
2019-04-24T13:31:41.230Z,703.13
2019-04-24T13:32:45.290Z,691.88
2019-04-24T13:33:38.741Z,697.50
2019-04-24T13:34:47.584Z,680.63
2019-04-24T13:35:45.539Z,675.00
2019-04-24T13:36:57.275Z,680.63
2019-04-24T13:38:58.169Z,703.13
2019-04-24T13:39:50.336Z,697.50
2019-04-24T13:41:58.050Z,680.63
2019-04-24T13:42:50.975Z,675.00
2019-04-24T13:43:59.845Z,725.63
2019-04-24T13:44:54.416Z,720.00
2019-04-24T13:45:53.539Z,708.75
2019-04-24T13:46:45.185Z,697.50
2019-04-24T13:47:55.765Z,697.50
2019-04-24T13:48:46.444Z,697.50
2019-04-24T13:49:50.195Z,703.13
2019-04-24T13:50:44.992Z,703.13
2019-04-24T13:51:58.960Z,691.88
2019-04-24T13:53:20.316Z,680.63
2019-04-24T13:54:48.458Z,663.75
2019-04-24T13:56:47.875Z,663.75
2019-04-24T13:57:51.264Z,652.50
2019-04-24T13:58:50.064Z,652.50
2019-04-24T13:59:56.771Z,663.75
2019-04-24T14:01:51.231Z,646.88
2019-04-24T14:04:00.519Z,646.88
2019-04-24T14:04:49.505Z,635.63
2019-04-24T14:07:58.255Z,624.38
2019-04-24T14:12:28.951Z,646.88
2019-04-24T14:12:46.283Z,601.88
2019-04-24T14:14:05.446Z,579.38
2019-04-24T14:16:04.173Z,613.13
2019-04-24T14:16:48.156Z,562.50
2019-04-24T14:18:03.981Z,540.00
2019-04-24T14:19:02.286Z,528.75
2019-04-24T14:19:59.295Z,511.88
2019-04-24T14:20:53.093Z,483.75
2019-04-24T14:21:50.302Z,483.75
2019-04-24T14:23:02.622Z,478.13
2019-04-24T14:24:02.051Z,466.88
2019-04-24T14:25:04.073Z,472.50
2019-04-24T14:25:59.055Z,483.75
2019-04-24T14:28:04.949Z,511.88
2019-04-24T14:28:50.299Z,528.75
2019-04-24T14:29:55.380Z,545.63
2019-04-24T14:32:50.602Z,590.63
2019-04-24T14:33:26.083Z,601.88
2019-04-24T14:34:44.675Z,635.63
2019-04-24T14:36:46.647Z,725.63
2019-04-24T14:37:23.355Z,742.50
2019-04-24T14:38:48.235Z,770.63
2019-04-24T14:39:23.963Z,787.50
2019-04-24T14:40:31.867Z,787.50
2019-04-24T14:42:29.475Z,883.13
2019-04-24T14:46:33.997Z,933.75
2019-04-24T14:47:29.533Z,956.25
2019-04-24T14:48:24.693Z,933.75
2019-04-24T14:49:49.544Z,956.25
2019-04-24T14:50:30.139Z,928.13
2019-04-24T14:51:24.422Z,905.63
2019-04-24T14:52:31.813Z,883.13
2019-04-24T14:53:28.412Z,905.63
2019-04-24T14:56:30.991Z,843.75
2019-04-24T14:57:44.101Z,849.38
2019-04-24T14:58:28.493Z,832.50
2019-04-24T15:01:43.313Z,871.88
2019-04-24T15:03:21.032Z,855.00
2019-04-24T15:04:28.666Z,838.13
2019-04-24T15:06:35.588Z,821.25
2019-04-24T15:07:31.985Z,798.75
2019-04-24T15:08:41.107Z,776.25
2019-04-24T15:09:27.550Z,781.88
2019-04-24T15:10:32.413Z,765.00
2019-04-24T15:11:36.291Z,753.75
2019-04-24T15:12:39.278Z,742.50
2019-04-24T15:13:36.603Z,731.25
2019-04-24T15:14:40.369Z,720.00
2019-04-24T15:15:25.090Z,708.75
2019-04-24T15:17:43.283Z,675.00
2019-04-24T15:18:26.988Z,669.38
2019-04-24T15:20:29.706Z,590.63
2019-04-24T15:21:37.463Z,551.25
2019-04-24T15:24:41.775Z,618.75
2019-04-24T15:26:33.768Z,641.25
2019-04-24T15:28:34.323Z,596.25
2019-04-24T15:29:35.038Z,556.88
2019-04-24T15:30:39.396Z,568.13
2019-04-24T15:31:31.692Z,573.75
2019-04-24T15:32:35.027Z,601.88
2019-04-24T15:33:35.790Z,607.50
2019-04-24T15:35:46.115Z,630.00
2019-04-24T15:36:32.926Z,635.63
2019-04-24T15:37:33.326Z,590.63
2019-04-24T15:39:47.935Z,607.50
2019-04-24T15:40:41.611Z,624.38
2019-04-24T15:41:41.612Z,573.75
2019-04-24T15:44:44.284Z,528.75
2019-04-24T15:45:37.103Z,517.50
2019-04-24T15:46:35.927Z,562.50
2019-04-24T15:48:42.039Z,646.88
2019-04-24T15:49:36.512Z,658.13
2019-04-24T15:50:44.076Z,630.00
2019-04-24T15:51:28.639Z,641.25
2019-04-24T15:52:06.726Z,613.13
2019-04-24T15:53:07.162Z,590.63
2019-04-24T15:54:07.221Z,545.63
2019-04-24T15:55:07.211Z,556.88
2019-04-24T15:56:07.376Z,573.75
2019-04-24T15:57:07.554Z,573.75
2019-04-24T15:58:15.657Z,562.50
2019-04-24T15:59:33.942Z,534.38
2019-04-24T16:00:38.139Z,534.38
2019-04-24T16:01:39.607Z,528.75
2019-04-24T16:04:45.126Z,511.88
2019-04-24T16:05:08.825Z,511.88
2019-04-24T16:06:09.250Z,511.88
2019-04-24T16:07:09.320Z,517.50
2019-04-24T16:08:09.305Z,511.88
2019-04-24T16:09:09.465Z,517.50
2019-04-24T16:10:09.625Z,562.50
2019-04-24T16:11:09.783Z,551.25
2019-04-24T16:12:09.943Z,528.75
2019-04-24T16:13:11.255Z,523.13
2019-04-24T16:14:29.438Z,517.50
2019-04-24T16:15:40.479Z,511.88
2019-04-24T16:16:39.621Z,511.88
2019-04-24T16:17:49.136Z,506.25
2019-04-24T16:19:08.612Z,506.25
2019-04-24T16:19:40.872Z,517.50
2019-04-24T16:20:39.987Z,556.88
2019-04-24T16:21:41.513Z,579.38
2019-04-24T16:22:40.625Z,556.88
2019-04-24T16:24:18.809Z,573.75
2019-04-24T16:25:42.175Z,551.25
2019-04-24T16:26:46.313Z,545.63
2019-04-24T16:28:42.458Z,534.38
2019-04-24T16:29:40.856Z,517.50
2019-04-24T16:30:39.253Z,523.13
2019-04-24T16:32:09.030Z,500.63
2019-04-24T16:33:08.644Z,517.50
2019-04-24T16:34:39.082Z,528.75
2019-04-24T16:35:57.094Z,523.13
2019-04-24T16:37:39.045Z,511.88
2019-04-24T16:39:58.826Z,568.13
2019-04-24T16:40:59.952Z,607.50
2019-04-24T16:43:05.813Z,787.50
2019-04-24T16:44:47.829Z,871.88
2019-04-24T16:46:49.935Z,967.50
2019-04-24T16:48:21.802Z,1035.00
2019-04-24T16:50:02.421Z,821.25
2019-04-24T16:51:09.323Z,630.00
2019-04-24T16:52:48.069Z,534.38
2019-04-24T16:53:49.994Z,500.63
2019-04-24T16:54:45.107Z,489.38
2019-04-24T16:55:39.461Z,500.63
2019-04-24T16:57:55.832Z,466.88
2019-04-24T16:58:46.471Z,478.13
2019-04-24T16:59:36.197Z,534.38
2019-04-24T17:01:05.091Z,551.25
2019-04-24T17:03:00.823Z,416.25
2019-04-24T17:04:09.734Z,388.13
2019-04-24T17:05:53.282Z,365.63
2019-04-24T17:06:51.084Z,360.00
2019-04-24T17:08:51.614Z,360.00
2019-04-24T17:10:48.854Z,376.88
2019-04-24T17:12:49.294Z,354.38
2019-04-24T17:13:48.979Z,354.38
2019-04-24T17:14:48.185Z,343.13
2019-04-24T17:15:49.412Z,326.25
2019-04-24T17:18:06.742Z,303.75
2019-04-24T17:19:04.949Z,292.50
2019-04-24T17:19:51.983Z,286.88
2019-04-24T17:21:10.830Z,281.25
2019-04-24T17:21:56.273Z,275.63
2019-04-24T17:23:55.918Z,270.00
2019-04-24T17:24:57.628Z,264.38
2019-04-24T17:26:03.632Z,258.75
2019-04-24T17:26:58.824Z,258.75
2019-04-24T17:27:57.641Z,253.13
2019-04-24T17:28:53.311Z,247.50
2019-04-24T17:29:54.030Z,241.88
2019-04-24T17:30:49.800Z,230.63
2019-04-24T17:31:50.885Z,219.38
2019-04-24T17:32:57.805Z,208.13
2019-04-24T17:34:03.916Z,196.88
2019-04-24T17:36:30.713Z,168.75
2019-04-24T17:37:23.596Z,163.13
2019-04-24T17:38:23.755Z,157.50
2019-04-24T17:39:23.916Z,146.25
2019-04-24T17:40:24.074Z,140.63
2019-04-24T17:41:31.466Z,135.00
2019-04-24T17:42:38.676Z,129.38
2019-04-24T17:43:54.634Z,123.75
2019-04-24T17:45:04.874Z,118.13
2019-04-24T17:45:55.447Z,112.50
2019-04-24T17:47:03.413Z,106.88
2019-04-24T17:47:47.556Z,101.25
2019-04-24T17:49:03.434Z,101.25
2019-04-24T17:50:56.200Z,90.00
2019-04-24T17:51:47.908Z,84.38
2019-04-24T17:52:58.210Z,78.75
2019-04-24T17:53:54.167Z,73.13
2019-04-24T17:54:52.233Z,61.88
2019-04-24T17:56:56.357Z,45.00
2019-04-24T17:58:28.340Z,33.75
2019-04-24T17:59:27.103Z,28.13
2019-04-24T18:00:27.259Z,28.13
2019-04-24T18:01:27.418Z,28.13
2019-04-24T18:02:27.577Z,22.50
2019-04-24T18:03:27.735Z,22.50
2019-04-24T18:04:27.893Z,22.50
2019-04-24T18:05:28.114Z,22.50
2019-04-24T18:06:28.212Z,22.50
2019-04-24T18:07:28.366Z,22.50
2019-04-24T18:08:28.529Z,22.50
2019-04-24T18:09:28.685Z,16.88
2019-04-24T18:10:28.847Z,16.88
2019-04-24T18:11:29.008Z,16.88
2019-04-24T18:12:29.165Z,16.88
2019-04-24T18:13:29.325Z,16.88
2019-04-24T18:14:29.498Z,16.88
2019-04-24T18:15:29.654Z,16.88
2019-04-24T18:16:29.813Z,16.88
2019-04-24T18:17:29.972Z,16.88
2019-04-24T18:18:30.130Z,11.25
2019-04-24T18:19:31.852Z,11.25
2019-04-24T18:20:31.616Z,11.25
2019-04-24T18:21:32.211Z,11.25
2019-04-24T18:22:38.116Z,11.25
2019-04-24T18:23:31.002Z,11.25
2019-04-24T18:24:31.593Z,11.25
2019-04-24T18:25:32.410Z,11.25
2019-04-24T18:26:31.638Z,11.25
2019-04-24T18:27:33.105Z,11.25
2019-04-24T18:28:32.499Z,11.25
2019-04-24T18:29:31.997Z,5.63
2019-04-24T18:30:32.695Z,5.63
2019-04-24T18:31:32.190Z,5.63
2019-04-24T18:32:32.348Z,5.63
2019-04-24T18:33:32.509Z,5.63
2019-04-24T18:34:32.665Z,5.63
2019-04-24T18:35:32.840Z,5.63
2019-04-24T18:36:33.000Z,0.00
2019-04-24T18:37:33.162Z,0.00
2019-04-24T18:38:33.318Z,0.00
2019-04-24T18:39:33.476Z,0.00
2019-04-24T18:40:33.636Z,0.00
2019-04-24T18:41:33.784Z,0.00
2019-04-24T18:42:33.946Z,0.00
2019-04-24T18:43:34.103Z,0.00
2019-04-24T18:44:34.260Z,0.00
2019-04-24T18:45:34.425Z,0.00
2019-04-24T18:46:34.581Z,0.00
2019-04-24T18:47:34.740Z,0.00
2019-04-24T18:48:34.897Z,0.00
2019-04-24T18:49:35.055Z,0.00
2019-04-24T18:50:35.214Z,0.00
2019-04-24T18:51:35.370Z,0.00
2019-04-24T18:52:35.529Z,0.00
2019-04-24T18:53:35.686Z,0.00
2019-04-24T18:54:35.841Z,0.00
2019-04-24T18:55:36.014Z,0.00
2019-04-24T18:56:36.244Z,0.00
2019-04-24T18:57:36.284Z,0.00
2019-04-24T18:58:36.507Z,0.00
2019-04-24T18:59:36.653Z,0.00
2019-04-24T19:00:36.811Z,0.00
2019-04-24T19:01:36.923Z,0.00
2019-04-24T19:02:37.012Z,0.00
2019-04-24T19:03:37.125Z,0.00
2019-04-24T19:04:37.200Z,0.00
2019-04-24T19:05:37.448Z,0.00
2019-04-24T19:06:37.522Z,0.00
2019-04-24T19:07:37.677Z,0.00
2019-04-24T19:08:37.835Z,0.00
2019-04-24T19:09:38.006Z,0.00
2019-04-24T19:10:38.270Z,0.00
2019-04-24T19:11:38.322Z,0.00
2019-04-24T19:12:38.467Z,0.00
2019-04-24T19:13:38.621Z,0.00
2019-04-24T19:14:38.778Z,0.00
2019-04-24T19:15:38.933Z,0.00
2019-04-24T19:16:39.089Z,0.00
2019-04-24T19:17:39.249Z,0.00
2019-04-24T19:18:39.400Z,0.00
2019-04-24T19:19:39.555Z,0.00
2019-04-24T19:20:39.705Z,0.00
2019-04-24T19:21:39.861Z,0.00
2019-04-24T19:22:40.012Z,0.00
2019-04-24T19:23:41.581Z,0.00
2019-04-24T19:24:41.705Z,0.00
2019-04-24T19:25:40.509Z,0.00
2019-04-24T19:26:41.705Z,0.00
2019-04-24T19:27:40.821Z,0.00
2019-04-24T19:28:41.418Z,0.00
2019-04-24T19:29:41.167Z,0.00
2019-04-24T19:30:41.358Z,0.00
2019-04-24T19:31:42.388Z,0.00
2019-04-24T19:32:41.796Z,0.00
2019-04-24T19:33:41.831Z,0.00
2019-04-24T19:34:43.342Z,0.00
2019-04-24T19:35:42.154Z,0.00
2019-04-24T19:36:42.312Z,0.00
2019-04-24T19:37:42.480Z,0.00
2019-04-24T19:38:43.727Z,0.00
2019-04-24T19:39:42.786Z,0.00
2019-04-24T19:40:42.951Z,0.00
2019-04-24T19:41:43.246Z,0.00
2019-04-24T19:42:43.303Z,0.00
2019-04-24T19:43:43.463Z,0.00
2019-04-24T19:44:43.635Z,0.00
2019-04-24T19:45:43.795Z,0.00
2019-04-24T19:46:43.947Z,0.00
2019-04-24T19:47:44.094Z,0.00
2019-04-24T19:48:44.247Z,0.00
2019-04-24T19:49:44.397Z,0.00
2019-04-24T19:50:44.555Z,0.00
2019-04-24T19:51:44.710Z,0.00
2019-04-24T19:52:44.874Z,0.00
2019-04-24T19:53:45.015Z,0.00
2019-04-24T19:54:45.172Z,0.00
2019-04-24T19:55:45.364Z,0.00
2019-04-24T19:56:45.504Z,0.00
2019-04-24T19:57:45.674Z,0.00
2019-04-24T19:58:45.823Z,0.00
2019-04-24T19:59:46.014Z,0.00
2019-04-24T20:00:46.208Z,0.00
2019-04-24T20:01:46.357Z,0.00
2019-04-24T20:02:46.507Z,0.00
2019-04-24T20:03:46.658Z,0.00
2019-04-24T20:04:46.814Z,0.00
2019-04-24T20:05:47.013Z,0.00
2019-04-24T20:06:47.169Z,0.00
2019-04-24T20:07:47.390Z,0.00
2019-04-24T20:08:47.425Z,0.00
2019-04-24T20:09:47.612Z,0.00
2019-04-24T20:10:47.792Z,0.00
2019-04-24T20:11:48.033Z,0.00
2019-04-24T20:12:48.166Z,0.00
2019-04-24T20:13:48.199Z,0.00
2019-04-24T20:14:48.349Z,0.00
2019-04-24T20:15:48.508Z,0.00